Time;durP1;ratioP1;P1;durP2;ratioP2;P2;SDS_P1;SDS_P2;PMS_P1;PMS_P2;Temp;Humidity;BMP_temperature;BMP_pressure;BME280_temperature;BME280_humidity;BME280_pressure;Samples;Min_cycle;Max_cycle;Signal;HPM_P1;HPM_P2
2022/08/23 00:01:55;;;;;;;4.15;2.03;;;19.30;99.90;;;;;;4964522;28;20023;-60
2022/08/23 00:04:25;;;;;;;3.42;1.50;;;19.30;99.90;;;;;;4967706;28;20608;-59
2022/08/23 00:06:52;;;;;;;2.92;1.85;;;19.30;99.90;;;;;;4970857;28;20523;-59
2022/08/23 00:09:20;;;;;;;2.85;1.80;;;19.30;99.90;;;;;;4966157;28;20435;-60
2022/08/23 00:11:53;;;;;;;3.15;1.75;;;19.20;99.90;;;;;;4970627;28;20355;-59
2022/08/23 00:14:26;;;;;;;4.80;1.95;;;19.20;99.90;;;;;;4964352;28;20031;-59
2022/08/23 00:16:52;;;;;;;3.75;1.92;;;19.20;99.90;;;;;;4970544;28;20501;-60
2022/08/23 00:19:20;;;;;;;3.95;2.42;;;19.20;99.90;;;;;;4945658;28;20023;-61
2022/08/23 00:21:46;;;;;;;4.85;1.83;;;19.20;99.90;;;;;;4970088;28;20483;-61
2022/08/23 00:24:13;;;;;;;2.60;1.52;;;19.20;99.90;;;;;;4968205;28;20171;-60
2022/08/23 00:26:51;;;;;;;2.65;2.42;;;19.20;99.90;;;;;;4965338;28;20023;-57
2022/08/23 00:29:17;;;;;;;6.57;2.00;;;19.10;99.90;;;;;;4963283;28;20049;-60
2022/08/23 00:31:43;;;;;;;3.17;1.67;;;19.10;99.90;;;;;;4970047;28;20027;-59
2022/08/23 00:34:08;;;;;;;5.30;2.65;;;19.10;99.90;;;;;;4966324;28;20042;-59
2022/08/23 00:36:34;;;;;;;4.50;1.88;;;19.10;99.90;;;;;;4969237;28;20065;-59
2022/08/23 00:39:00;;;;;;;4.63;2.30;;;19.10;99.90;;;;;;4965832;28;20015;-59
2022/08/23 00:41:26;;;;;;;3.80;1.92;;;19.10;99.90;;;;;;4951039;28;20481;-60
2022/08/23 00:49:38;;;;;;;5.25;2.25;;;19.00;99.90;;;;;;4965845;28;20450;-57
2022/08/23 00:52:11;;;;;;;4.25;2.03;;;19.00;99.90;;;;;;4963668;28;20041;-60
2022/08/23 00:54:38;;;;;;;2.83;1.75;;;19.00;99.90;;;;;;4963904;28;20027;-58
2022/08/23 00:57:09;;;;;;;3.88;1.98;;;19.00;99.90;;;;;;4967416;28;20092;-59
2022/08/23 00:59:34;;;;;;;3.25;1.73;;;19.00;99.90;;;;;;4961374;28;20019;-58
2022/08/23 01:02:00;;;;;;;2.30;2.05;;;19.00;99.90;;;;;;4960883;28;20034;-59
2022/08/23 01:04:31;;;;;;;5.15;2.35;;;19.00;99.90;;;;;;4966260;28;20082;-60
2022/08/23 01:07:22;;;;;;;2.53;2.33;;;19.00;99.90;;;;;;4969322;28;20081;-57
2022/08/23 01:09:51;;;;;;;5.10;2.03;;;18.90;99.90;;;;;;4965685;28;20030;-59
2022/08/23 01:12:24;;;;;;;3.28;1.90;;;18.90;99.90;;;;;;4966381;28;20363;-60
2022/08/23 01:14:57;;;;;;;3.83;2.10;;;18.90;99.90;;;;;;4965010;28;20034;-59
2022/08/23 01:17:32;;;;;;;3.67;2.05;;;18.90;99.90;;;;;;4966052;28;20015;-58
2022/08/23 01:20:06;;;;;;;3.45;2.55;;;18.90;99.90;;;;;;4965360;28;20111;-58
2022/08/23 01:22:55;;;;;;;3.45;1.95;;;18.80;99.90;;;;;;4969612;28;20015;-60
2022/08/23 01:25:22;;;;;;;5.10;2.20;;;18.80;99.90;;;;;;4968595;28;20373;-59
2022/08/23 01:27:49;;;;;;;2.92;1.80;;;18.80;99.90;;;;;;4965243;28;20109;-60
2022/08/23 01:30:19;;;;;;;3.20;2.15;;;18.80;99.90;;;;;;4966951;28;20054;-58
2022/08/23 01:32:49;;;;;;;3.83;2.05;;;18.80;99.90;;;;;;4970303;28;20395;-56
2022/08/23 01:35:17;;;;;;;3.03;1.95;;;18.80;99.90;;;;;;4965611;28;20086;-59
2022/08/23 01:37:44;;;;;;;2.38;2.17;;;18.70;99.90;;;;;;4953189;28;20509;-58
2022/08/23 01:40:10;;;;;;;3.83;1.83;;;18.70;99.90;;;;;;4963310;28;20032;-58
2022/08/23 01:42:38;;;;;;;2.00;1.73;;;18.70;99.90;;;;;;4970167;28;20027;-59
2022/08/23 01:45:04;;;;;;;2.83;2.35;;;18.70;99.90;;;;;;4962762;28;20100;-59
2022/08/23 01:47:30;;;;;;;2.78;2.47;;;18.70;99.90;;;;;;4971976;28;20061;-58
2022/08/23 01:49:56;;;;;;;8.00;2.47;;;18.70;99.90;;;;;;4972730;28;20455;-59
2022/08/23 01:52:22;;;;;;;4.20;2.30;;;18.70;99.90;;;;;;4969103;28;20101;-59
2022/08/23 01:54:47;;;;;;;3.45;2.08;;;18.70;99.90;;;;;;4973720;28;20026;-55
2022/08/23 01:57:13;;;;;;;2.65;2.15;;;18.70;99.90;;;;;;4966905;28;20098;-56
2022/08/23 01:59:38;;;;;;;3.00;1.80;;;18.70;99.90;;;;;;4973669;28;20030;-56
2022/08/23 02:02:04;;;;;;;3.80;2.65;;;18.60;99.90;;;;;;4965772;28;20114;-58
2022/08/23 02:04:30;;;;;;;3.33;2.38;;;18.60;99.90;;;;;;4971442;28;20034;-59
2022/08/23 02:06:55;;;;;;;7.68;2.65;;;18.60;99.90;;;;;;4972561;28;20031;-59
2022/08/23 02:09:21;;;;;;;4.32;2.08;;;18.60;99.90;;;;;;4952040;28;20509;-59
2022/08/23 02:11:48;;;;;;;3.55;2.35;;;18.60;99.90;;;;;;4973005;28;20034;-60
2022/08/23 02:14:17;;;;;;;2.88;2.05;;;18.60;99.90;;;;;;4953354;28;20023;-59
2022/08/23 02:16:48;;;;;;;2.72;2.33;;;18.60;99.90;;;;;;4973059;28;20026;-59
2022/08/23 02:19:14;;;;;;;5.30;2.35;;;18.60;99.90;;;;;;4964699;28;20503;-60
2022/08/23 02:21:41;;;;;;;4.53;2.00;;;18.60;99.90;;;;;;4972012;28;20046;-57
2022/08/23 02:24:11;;;;;;;2.50;2.28;;;18.60;99.90;;;;;;4969826;28;20462;-60
2022/08/23 02:26:38;;;;;;;5.80;2.50;;;18.50;99.90;;;;;;4966586;28;20019;-59
2022/08/23 02:29:05;;;;;;;3.90;2.55;;;18.50;99.90;;;;;;4968970;28;20487;-58
2022/08/23 02:31:31;;;;;;;2.58;2.10;;;18.50;99.90;;;;;;4971023;28;20133;-58
2022/08/23 02:33:57;;;;;;;6.72;2.20;;;18.50;99.90;;;;;;4984282;28;20422;-57
2022/08/23 02:36:22;;;;;;;2.55;2.20;;;18.50;99.90;;;;;;4980588;28;20027;-59
2022/08/23 02:38:48;;;;;;;3.30;2.35;;;18.50;99.90;;;;;;4975150;28;20098;-60
2022/08/23 02:41:16;;;;;;;3.65;1.95;;;18.50;99.90;;;;;;4969128;28;20085;-57
2022/08/23 02:43:42;;;;;;;3.65;2.30;;;18.40;99.90;;;;;;4969666;28;20105;-59
2022/08/23 02:46:07;;;;;;;3.10;2.80;;;18.50;99.90;;;;;;4966275;28;20550;-57
2022/08/23 02:48:35;;;;;;;4.18;2.30;;;18.50;99.90;;;;;;4951405;28;20081;-59
2022/08/23 02:51:03;;;;;;;3.35;2.30;;;18.50;99.90;;;;;;4977949;28;20082;-59
2022/08/23 02:53:29;;;;;;;3.00;2.20;;;18.40;99.90;;;;;;4967187;28;20026;-59
2022/08/23 02:55:56;;;;;;;6.03;2.78;;;18.40;99.90;;;;;;4969607;28;20107;-60
2022/08/23 02:58:22;;;;;;;4.30;2.78;;;18.40;99.90;;;;;;4965817;28;20075;-59
2022/08/23 03:00:49;;;;;;;3.03;2.35;;;18.40;99.90;;;;;;4968865;28;20059;-60
2022/08/23 03:03:15;;;;;;;4.30;2.53;;;18.40;99.90;;;;;;4963062;28;20526;-59
2022/08/23 03:05:42;;;;;;;2.83;2.47;;;18.40;99.90;;;;;;4967717;28;20027;-58
2022/08/23 03:08:07;;;;;;;7.15;2.63;;;18.30;99.90;;;;;;4976591;28;20311;-59
2022/08/23 03:10:33;;;;;;;2.47;2.28;;;18.30;99.90;;;;;;4965977;28;20049;-59
2022/08/23 03:13:00;;;;;;;5.40;2.60;;;18.30;99.90;;;;;;4965622;28;20061;-58
2022/08/23 03:15:26;;;;;;;4.25;2.33;;;18.30;99.90;;;;;;4945761;28;20403;-58
2022/08/23 03:17:52;;;;;;;4.30;2.40;;;18.30;99.90;;;;;;4966519;28;20029;-57
2022/08/23 03:20:18;;;;;;;5.47;2.45;;;18.30;99.90;;;;;;4970746;28;20097;-60
2022/08/23 03:22:43;;;;;;;4.25;2.22;;;18.30;99.90;;;;;;4966311;28;20058;-57
2022/08/23 03:25:09;;;;;;;4.50;2.55;;;18.30;99.90;;;;;;4932723;28;1077397;-59
2022/08/23 03:27:35;;;;;;;5.22;2.42;;;18.30;99.90;;;;;;4967067;28;20110;-60
2022/08/23 03:30:00;;;;;;;6.43;2.92;;;18.30;99.90;;;;;;4951938;28;20023;-60
2022/08/23 03:32:26;;;;;;;8.05;2.80;;;18.30;99.90;;;;;;4965743;28;20117;-60
2022/08/23 03:34:52;;;;;;;2.72;2.20;;;18.30;99.90;;;;;;4967682;28;20038;-59
2022/08/23 03:37:18;;;;;;;3.08;2.10;;;18.20;99.90;;;;;;4971162;28;20069;-60
2022/08/23 03:39:44;;;;;;;2.55;2.35;;;18.30;99.90;;;;;;4967289;28;20422;-60
2022/08/23 03:42:10;;;;;;;2.78;2.47;;;18.30;99.90;;;;;;4974818;28;20065;-57
2022/08/23 03:44:36;;;;;;;2.67;2.30;;;18.20;99.90;;;;;;4971323;28;20081;-60
2022/08/23 03:47:02;;;;;;;3.13;2.38;;;18.20;99.90;;;;;;4966847;28;20031;-58
2022/08/23 03:49:28;;;;;;;4.35;2.80;;;18.20;99.90;;;;;;4971692;28;20101;-57
2022/08/23 03:51:53;;;;;;;4.55;2.80;;;18.20;99.90;;;;;;4966052;28;20114;-57
2022/08/23 03:54:19;;;;;;;3.10;2.42;;;18.20;99.90;;;;;;4970018;28;20037;-60
2022/08/23 03:57:01;;;;;;;2.72;2.45;;;18.20;99.90;;;;;;4966545;28;20027;-60
2022/08/23 03:59:28;;;;;;;4.90;2.60;;;18.20;99.90;;;;;;4970042;28;20042;-59
2022/08/23 04:01:54;;;;;;;3.03;2.70;;;18.20;99.90;;;;;;4970100;28;20026;-59
2022/08/23 04:04:20;;;;;;;3.72;2.50;;;18.10;99.90;;;;;;4966917;28;20030;-60
2022/08/23 04:06:46;;;;;;;3.35;2.53;;;18.10;99.90;;;;;;4971020;28;20424;-59
2022/08/23 04:09:13;;;;;;;3.30;2.20;;;18.10;99.90;;;;;;4964574;28;20074;-60
2022/08/23 04:11:39;;;;;;;3.70;2.83;;;18.10;99.90;;;;;;4970554;28;20440;-59
2022/08/23 04:14:06;;;;;;;3.00;2.60;;;18.10;99.90;;;;;;4963433;28;20029;-58
2022/08/23 04:16:36;;;;;;;4.47;2.60;;;18.10;99.90;;;;;;4970249;28;20269;-60
2022/08/23 04:19:06;;;;;;;3.00;2.17;;;18.10;99.90;;;;;;4968680;28;20081;-61
2022/08/23 04:21:33;;;;;;;4.32;2.67;;;18.10;99.90;;;;;;4968483;28;20097;-59
2022/08/23 04:23:59;;;;;;;2.65;2.45;;;18.00;99.90;;;;;;4968793;28;20051;-60
2022/08/23 04:26:25;;;;;;;2.67;2.40;;;18.00;99.90;;;;;;4950250;28;20118;-59
2022/08/23 04:28:50;;;;;;;2.50;2.30;;;18.00;99.90;;;;;;4970889;28;20486;-58
2022/08/23 04:31:19;;;;;;;2.92;2.53;;;18.00;99.90;;;;;;4963058;28;20031;-59
2022/08/23 04:33:45;;;;;;;3.40;2.33;;;18.00;99.90;;;;;;4970584;28;20035;-59
2022/08/23 04:36:10;;;;;;;3.88;2.63;;;18.00;99.90;;;;;;4967780;28;20030;-60
2022/08/23 04:38:36;;;;;;;4.45;2.28;;;18.00;99.90;;;;;;4961981;28;20046;-59
2022/08/23 04:43:46;;;;;;;3.85;2.72;;;18.00;99.90;;;;;;4970575;28;20082;-57
2022/08/23 04:46:14;;;;;;;2.83;2.22;;;18.00;99.90;;;;;;4967433;28;20027;-58
2022/08/23 04:48:40;;;;;;;3.78;2.38;;;18.00;99.90;;;;;;4969671;28;20018;-56
2022/08/23 04:51:06;;;;;;;2.75;2.42;;;18.00;99.90;;;;;;4966276;28;20019;-59
2022/08/23 04:53:34;;;;;;;6.75;2.97;;;18.00;99.90;;;;;;4968561;28;20015;-60
2022/08/23 04:56:01;;;;;;;3.00;2.70;;;18.10;99.90;;;;;;4965620;28;20026;-59
2022/08/23 04:58:30;;;;;;;4.82;2.50;;;18.10;99.90;;;;;;4968223;28;20510;-58
2022/08/23 05:00:59;;;;;;;2.90;2.70;;;18.10;99.90;;;;;;4970411;28;20414;-58
2022/08/23 05:03:26;;;;;;;3.75;2.33;;;18.10;99.90;;;;;;4967004;28;20015;-56
2022/08/23 05:05:52;;;;;;;3.10;2.45;;;18.10;99.90;;;;;;4969533;28;20065;-59
2022/08/23 05:08:18;;;;;;;4.00;2.53;;;18.10;99.90;;;;;;4966597;28;20031;-60
2022/08/23 05:10:44;;;;;;;4.63;2.65;;;18.10;99.90;;;;;;4968934;28;20069;-59
2022/08/23 05:13:10;;;;;;;4.72;2.75;;;18.10;99.90;;;;;;4965339;28;20432;-59
2022/08/23 05:15:35;;;;;;;6.20;3.03;;;18.10;99.90;;;;;;4967937;28;20106;-60
2022/08/23 05:18:01;;;;;;;5.50;2.90;;;18.10;99.90;;;;;;4970567;28;20111;-57
2022/08/23 05:20:27;;;;;;;2.83;2.53;;;18.20;99.90;;;;;;4967364;28;20451;-60
2022/08/23 05:22:53;;;;;;;3.22;2.60;;;18.20;99.90;;;;;;4972554;28;20027;-58
2022/08/23 05:25:19;;;;;;;3.50;3.20;;;18.20;99.90;;;;;;5010767;23;20070;-48
2022/08/23 05:27:45;;;;;;;3.25;2.38;;;18.20;99.90;;;;;;4991497;28;20025;-50
2022/08/23 05:30:11;;;;;;;4.28;2.42;;;18.20;99.90;;;;;;4988647;28;20022;-49
2022/08/23 05:32:37;;;;;;;4.75;2.65;;;18.20;99.90;;;;;;4990393;28;20015;-46
2022/08/23 05:35:03;;;;;;;3.63;2.55;;;18.20;99.90;;;;;;4994933;28;20025;-48
2022/08/23 05:37:28;;;;;;;4.43;2.65;;;18.20;99.90;;;;;;4998315;28;20022;-45
2022/08/23 05:39:54;;;;;;;4.45;2.85;;;18.20;99.90;;;;;;5002000;28;20027;-44
2022/08/23 05:42:20;;;;;;;4.05;3.00;;;18.30;99.90;;;;;;5001077;28;20026;-46
2022/08/23 05:44:45;;;;;;;2.85;2.50;;;18.30;99.90;;;;;;4999993;28;20023;-45
2022/08/23 05:47:14;;;;;;;3.55;2.30;;;18.30;99.90;;;;;;5000175;28;20049;-48
2022/08/23 05:49:39;;;;;;;2.80;2.60;;;18.30;99.90;;;;;;4999536;28;20037;-45
2022/08/23 05:52:07;;;;;;;2.25;2.05;;;18.40;99.90;;;;;;4997867;28;20371;-48
2022/08/23 05:54:34;;;;;;;3.60;2.42;;;18.40;99.90;;;;;;4999352;28;20030;-47
2022/08/23 05:56:59;;;;;;;4.10;2.70;;;18.50;99.90;;;;;;4996602;28;20194;-47
2022/08/23 05:59:25;;;;;;;2.58;2.38;;;18.60;99.90;;;;;;5003451;28;20482;-45
2022/08/23 06:01:51;;;;;;;4.55;2.55;;;18.60;99.90;;;;;;4996890;28;20034;-45
2022/08/23 06:04:16;;;;;;;2.45;2.25;;;18.70;99.90;;;;;;5000520;28;20028;-46
2022/08/23 06:06:43;;;;;;;3.60;2.45;;;18.70;99.90;;;;;;4998878;28;20117;-46
2022/08/23 06:09:12;;;;;;;3.22;2.53;;;18.70;99.90;;;;;;4996297;28;20034;-48
2022/08/23 06:11:38;;;;;;;2.30;2.10;;;18.70;99.90;;;;;;4998383;28;20045;-46
2022/08/23 06:14:05;;;;;;;3.90;2.45;;;18.80;99.90;;;;;;4995797;28;20514;-44
2022/08/23 06:16:33;;;;;;;5.90;2.67;;;18.80;99.90;;;;;;5004155;28;20044;-45
2022/08/23 06:19:03;;;;;;;2.90;2.20;;;18.80;99.90;;;;;;4992891;28;20029;-46
2022/08/23 06:21:30;;;;;;;4.47;2.58;;;18.80;99.90;;;;;;5001486;28;20041;-46
2022/08/23 06:23:56;;;;;;;4.07;2.47;;;18.90;99.90;;;;;;4996321;28;20030;-45
2022/08/23 06:26:27;;;;;;;4.63;2.33;;;18.90;99.90;;;;;;4999179;28;20023;-47
2022/08/23 06:28:55;;;;;;;2.58;2.38;;;19.00;99.90;;;;;;4995977;28;20505;-46
2022/08/23 06:34:09;;;;;;;4.80;2.08;;;19.00;99.90;;;;;;5000393;28;20037;-48
2022/08/23 06:36:36;;;;;;;2.35;2.00;;;19.00;99.90;;;;;;4997201;28;20038;-47
2022/08/23 06:39:06;;;;;;;2.50;2.30;;;19.10;99.90;;;;;;5001223;28;20018;-45
2022/08/23 06:41:32;;;;;;;4.22;2.42;;;19.10;99.90;;;;;;4999083;28;20046;-45
2022/08/23 06:43:58;;;;;;;4.05;2.20;;;19.10;99.90;;;;;;5002701;28;20097;-46
2022/08/23 06:46:27;;;;;;;3.40;2.83;;;19.10;99.90;;;;;;4996870;28;20173;-46
2022/08/23 06:48:53;;;;;;;5.75;2.40;;;19.10;99.90;;;;;;5000793;28;20022;-47
2022/08/23 06:51:29;;;;;;;2.65;2.45;;;19.10;99.90;;;;;;4991953;28;20023;-47
2022/08/23 06:53:59;;;;;;;3.25;2.08;;;19.20;99.90;;;;;;4996809;28;20058;-45
2022/08/23 06:56:26;;;;;;;3.78;2.42;;;19.20;99.90;;;;;;4995358;28;20108;-46
2022/08/23 06:58:52;;;;;;;2.38;2.17;;;19.30;99.90;;;;;;4997727;28;20061;-45
2022/08/23 07:01:39;;;;;;;3.72;2.55;;;19.50;99.90;;;;;;5001567;28;20014;-46
2022/08/23 07:04:07;;;;;;;3.88;2.80;;;19.60;99.90;;;;;;4997833;28;20030;-47
2022/08/23 07:06:33;;;;;;;8.57;3.47;;;19.80;99.90;;;;;;4998839;28;20022;-47
2022/08/23 07:08:59;;;;;;;5.75;2.58;;;20.00;99.90;;;;;;4995794;28;20065;-45
2022/08/23 07:11:28;;;;;;;3.88;2.80;;;20.20;99.90;;;;;;4998378;28;20457;-46
2022/08/23 07:13:54;;;;;;;2.15;1.95;;;20.40;99.90;;;;;;4994381;28;20367;-45
2022/08/23 07:16:20;;;;;;;3.47;2.08;;;20.60;99.90;;;;;;5001259;28;20432;-45
2022/08/23 07:18:48;;;;;;;2.63;2.10;;;20.80;99.90;;;;;;4997476;28;20018;-44
2022/08/23 07:21:14;;;;;;;2.60;1.98;;;20.90;99.90;;;;;;4994861;28;20489;-46
2022/08/23 07:23:42;;;;;;;3.05;2.03;;;21.00;99.90;;;;;;4996165;28;20026;-45
2022/08/23 07:26:11;;;;;;;2.25;2.03;;;21.20;99.90;;;;;;4995981;28;20064;-46
2022/08/23 07:28:37;;;;;;;2.17;1.98;;;21.40;99.90;;;;;;4997141;28;20510;-45
2022/08/23 07:31:10;;;;;;;2.85;2.17;;;21.60;99.90;;;;;;4994432;28;20034;-45
2022/08/23 07:33:37;;;;;;;3.22;2.22;;;21.70;99.90;;;;;;4992056;28;20026;-48
2022/08/23 07:36:04;;;;;;;2.78;2.47;;;21.90;99.90;;;;;;4994691;28;20023;-47
2022/08/23 07:38:31;;;;;;;5.25;2.55;;;22.10;99.90;;;;;;5000067;28;20024;-45
2022/08/23 07:40:57;;;;;;;2.20;2.00;;;22.30;99.90;;;;;;5000136;28;20022;-47
2022/08/23 07:43:23;;;;;;;3.50;2.50;;;22.50;99.60;;;;;;4998764;28;20229;-46
2022/08/23 07:45:48;;;;;;;2.53;2.05;;;22.60;99.40;;;;;;4997948;28;20077;-45
2022/08/23 07:48:14;;;;;;;3.75;1.92;;;22.70;98.80;;;;;;4990271;28;20105;-44
2022/08/23 07:50:40;;;;;;;3.67;2.13;;;22.90;98.70;;;;;;4994949;28;20482;-45
2022/08/23 07:53:08;;;;;;;2.95;1.95;;;23.00;98.20;;;;;;4996560;28;20375;-45
2022/08/23 07:55:37;;;;;;;3.70;1.77;;;23.20;98.10;;;;;;4992164;28;20022;-45
2022/08/23 07:58:03;;;;;;;5.80;2.00;;;23.30;98.00;;;;;;4997748;28;20504;-45
2022/08/23 08:00:29;;;;;;;2.33;2.13;;;23.50;97.40;;;;;;4998933;28;20017;-47
2022/08/23 08:02:54;;;;;;;2.58;1.77;;;23.60;97.50;;;;;;4997632;28;20033;-45
2022/08/23 08:05:20;;;;;;;3.45;1.90;;;23.70;97.00;;;;;;4997946;28;20025;-46
2022/08/23 08:07:45;;;;;;;3.15;2.10;;;23.90;97.10;;;;;;4995615;28;20022;-45
2022/08/23 08:10:11;;;;;;;2.40;1.77;;;24.00;95.70;;;;;;5005805;28;20084;-51
2022/08/23 08:12:36;;;;;;;2.42;1.83;;;24.10;95.50;;;;;;4992325;28;20417;-45
2022/08/23 08:15:03;;;;;;;2.42;1.80;;;24.20;94.40;;;;;;4997445;28;20030;-44
2022/08/23 08:17:29;;;;;;;1.40;1.30;;;24.30;94.90;;;;;;4998533;28;20026;-49
2022/08/23 08:19:55;;;;;;;2.28;1.35;;;24.40;94.40;;;;;;4997000;28;20036;-49
2022/08/23 08:22:20;;;;;;;1.90;1.38;;;24.60;93.60;;;;;;4997279;28;20045;-47
2022/08/23 08:24:46;;;;;;;1.33;1.20;;;24.70;92.90;;;;;;4994656;28;20510;-47
2022/08/23 08:27:11;;;;;;;2.40;1.30;;;24.80;93.30;;;;;;4996680;28;20474;-46
2022/08/23 08:29:37;;;;;;;2.50;1.42;;;25.00;92.90;;;;;;4990960;28;20291;-46
2022/08/23 08:32:03;;;;;;;3.90;1.67;;;25.00;92.30;;;;;;4997082;28;20026;-47
2022/08/23 08:34:28;;;;;;;1.60;1.50;;;25.00;93.00;;;;;;4996714;28;20028;-48
2022/08/23 08:36:57;;;;;;;1.60;1.42;;;25.10;92.90;;;;;;4997173;28;20026;-46
2022/08/23 08:39:27;;;;;;;1.85;1.17;;;25.20;92.80;;;;;;4997367;28;20072;-45
2022/08/23 08:42:11;;;;;;;2.75;1.30;;;25.30;92.70;;;;;;4997165;28;20465;-46
2022/08/23 08:44:39;;;;;;;1.92;1.42;;;25.30;92.20;;;;;;4997402;28;20022;-45
2022/08/23 08:47:12;;;;;;;1.98;1.33;;;25.30;92.40;;;;;;4995973;28;20116;-47
2022/08/23 08:49:47;;;;;;;3.95;1.60;;;25.40;92.90;;;;;;4996441;28;20026;-45
2022/08/23 08:52:31;;;;;;;1.88;1.40;;;25.50;92.00;;;;;;4995166;28;20122;-46
2022/08/23 08:55:04;;;;;;;3.33;1.30;;;25.60;92.30;;;;;;4992866;28;20026;-45
2022/08/23 08:57:45;;;;;;;2.83;1.45;;;25.70;92.50;;;;;;4999793;28;20558;-46
2022/08/23 09:00:24;;;;;;;2.08;1.30;;;25.80;92.10;;;;;;5002602;28;20398;-46
2022/08/23 09:02:51;;;;;;;2.90;1.40;;;25.80;92.40;;;;;;5000863;28;20026;-46
2022/08/23 09:05:30;;;;;;;2.00;1.63;;;25.90;92.60;;;;;;5001382;28;20033;-47
2022/08/23 09:08:20;;;;;;;2.42;1.50;;;25.90;91.60;;;;;;4995477;28;20023;-44
2022/08/23 09:11:15;;;;;;;2.28;1.48;;;25.90;91.80;;;;;;4998964;28;20046;-46
2022/08/23 09:14:20;;;;;;;2.15;1.10;;;25.90;92.00;;;;;;4992781;28;20581;-47
2022/08/23 09:17:06;;;;;;;4.15;1.58;;;25.90;92.20;;;;;;4997478;28;20050;-47
2022/08/23 09:19:36;;;;;;;1.80;1.55;;;25.90;92.00;;;;;;4995092;28;20018;-46
2022/08/23 09:22:09;;;;;;;2.25;1.63;;;26.00;91.90;;;;;;5002216;28;20026;-48
2022/08/23 09:24:34;;;;;;;2.30;1.75;;;26.00;91.60;;;;;;4996846;28;20026;-44
2022/08/23 09:27:02;;;;;;;2.42;1.40;;;25.90;91.50;;;;;;5001756;28;20049;-46
2022/08/23 09:29:36;;;;;;;1.88;1.35;;;25.80;91.90;;;;;;4994325;28;20026;-45
2022/08/23 09:32:05;;;;;;;2.28;1.50;;;25.90;91.70;;;;;;5000581;28;20030;-46
2022/08/23 09:34:34;;;;;;;3.25;1.73;;;25.80;91.60;;;;;;5001540;28;20026;-44
2022/08/23 09:37:11;;;;;;;2.00;1.80;;;25.80;91.70;;;;;;4992887;28;20046;-46
2022/08/23 09:39:41;;;;;;;3.67;1.67;;;25.80;91.80;;;;;;5000596;28;20054;-45
2022/08/23 09:42:34;;;;;;;1.70;1.35;;;25.80;92.10;;;;;;5000470;28;20541;-46
2022/08/23 09:45:00;;;;;;;2.22;1.55;;;25.90;92.10;;;;;;4997554;28;20529;-47
2022/08/23 09:47:35;;;;;;;2.65;1.40;;;25.90;91.80;;;;;;5002509;28;20370;-48
2022/08/23 09:50:29;;;;;;;1.92;1.52;;;25.90;91.30;;;;;;4996632;28;20437;-45
2022/08/23 09:53:02;;;;;;;2.25;1.67;;;25.80;91.50;;;;;;4994642;28;20065;-47
2022/08/23 09:55:35;;;;;;;2.35;1.67;;;25.80;91.80;;;;;;4993830;28;20022;-45
2022/08/23 09:58:27;;;;;;;1.63;1.38;;;25.80;91.30;;;;;;5000557;28;20036;-48
2022/08/23 10:01:17;;;;;;;3.17;1.77;;;25.80;90.70;;;;;;4997931;28;20178;-45
2022/08/23 10:04:02;;;;;;;2.97;1.48;;;25.70;91.30;;;;;;4997951;28;20085;-47
2022/08/23 10:06:30;;;;;;;2.95;1.40;;;25.70;91.40;;;;;;4988437;28;20456;-44
2022/08/23 10:08:57;;;;;;;2.90;1.35;;;25.60;91.50;;;;;;4997362;28;20034;-45
2022/08/23 10:11:28;;;;;;;2.30;1.58;;;25.60;91.50;;;;;;5004446;28;20045;-45
2022/08/23 10:13:53;;;;;;;3.80;1.30;;;25.60;91.70;;;;;;4998467;28;20509;-45
2022/08/23 10:16:54;;;;;;;1.92;1.70;;;25.60;91.80;;;;;;5001820;28;20083;-47
2022/08/23 10:19:52;;;;;;;1.50;1.40;;;25.70;91.40;;;;;;4990727;28;20028;-45
2022/08/23 10:22:18;;;;;;;2.65;1.67;;;25.70;91.70;;;;;;4978907;28;20025;-46
2022/08/23 10:25:12;;;;;;;2.28;1.58;;;25.70;92.00;;;;;;4994568;28;20037;-47
2022/08/23 10:30:55;;;;;;;;;;;25.70;91.40;;;;;;4992276;28;20100;-45
2022/08/23 10:33:35;;;;;;;2.42;1.30;;;25.70;90.40;;;;;;5000273;28;19951;-46
2022/08/23 10:36:22;;;;;;;3.20;1.40;;;25.80;90.80;;;;;;4996157;28;20126;-47
2022/08/23 10:39:00;;;;;;;1.77;1.23;;;25.70;90.60;;;;;;4994844;28;20033;-48
2022/08/23 10:41:40;;;;;;;6.93;1.48;;;25.70;90.30;;;;;;4993906;28;20034;-47
2022/08/23 10:44:18;;;;;;;1.55;1.20;;;25.70;90.40;;;;;;5002496;28;20478;-45
2022/08/23 10:47:10;;;;;;;3.22;1.50;;;25.70;90.30;;;;;;4995823;28;20568;-45
2022/08/23 10:49:38;;;;;;;9.93;2.05;;;25.60;89.70;;;;;;4989269;28;20064;-48
2022/08/23 10:52:08;;;;;;;3.80;2.70;;;25.70;89.70;;;;;;4994368;28;20045;-45
2022/08/23 10:54:45;;;;;;;7.13;2.63;;;25.70;89.90;;;;;;4997173;28;20022;-44
2022/08/23 10:57:15;;;;;;;1.00;0.82;;;25.70;90.30;;;;;;4995866;28;20017;-46
2022/08/23 10:59:44;;;;;;;1.73;1.30;;;25.80;90.10;;;;;;5003998;28;20026;-46
2022/08/23 11:02:49;;;;;;;1.65;1.25;;;25.90;90.30;;;;;;4993426;28;20026;-45
2022/08/23 11:05:27;;;;;;;1.50;1.30;;;25.90;90.00;;;;;;4990751;28;20031;-44
2022/08/23 11:08:02;;;;;;;2.03;1.48;;;25.90;89.40;;;;;;4997168;28;20022;-50
2022/08/23 11:10:46;;;;;;;1.70;1.20;;;25.90;89.40;;;;;;4998152;28;20025;-46
2022/08/23 11:13:12;;;;;;;2.38;1.20;;;25.90;89.60;;;;;;4989172;28;20150;-48
2022/08/23 11:15:45;;;;;;;2.85;1.38;;;25.90;87.80;;;;;;4996809;28;20489;-51
2022/08/23 11:18:39;;;;;;;1.80;1.20;;;25.80;87.60;;;;;;5001141;28;20022;-46
2022/08/23 11:21:32;;;;;;;2.15;1.40;;;25.80;88.00;;;;;;4997276;28;20026;-47
2022/08/23 11:23:57;;;;;;;2.67;1.50;;;25.90;87.70;;;;;;4994421;28;20372;-45
2022/08/23 11:26:30;;;;;;;1.13;1.02;;;26.00;87.30;;;;;;5029939;23;20100;-57
2022/08/23 11:29:09;;;;;;;1.85;1.35;;;26.00;86.90;;;;;;4993003;28;20019;-57
2022/08/23 11:32:19;;;;;;;1.35;1.10;;;26.10;87.40;;;;;;4992512;28;20241;-59
2022/08/23 11:34:50;;;;;;;2.40;0.90;;;26.10;87.60;;;;;;4996269;28;20038;-60
2022/08/23 11:37:19;;;;;;;1.13;0.93;;;26.10;85.50;;;;;;4968566;28;20506;-57
2022/08/23 11:39:57;;;;;;;0.77;0.70;;;26.20;85.50;;;;;;4978055;28;20033;-60
2022/08/23 11:42:48;;;;;;;2.40;1.13;;;26.30;84.90;;;;;;4979637;28;20018;-56
2022/08/23 11:45:23;;;;;;;3.08;1.00;;;26.30;84.30;;;;;;4970461;28;20475;-54
2022/08/23 11:48:07;;;;;;;1.38;1.23;;;26.30;85.20;;;;;;4967118;28;20466;-58
2022/08/23 11:50:50;;;;;;;1.88;1.08;;;26.40;84.20;;;;;;4966444;28;20023;-57
2022/08/23 11:53:18;;;;;;;3.05;0.82;;;26.40;82.60;;;;;;4968018;28;20066;-56
2022/08/23 11:56:01;;;;;;;1.65;0.90;;;26.50;82.20;;;;;;4969436;28;20090;-58
2022/08/23 11:58:49;;;;;;;3.50;1.20;;;26.50;80.70;;;;;;4970280;28;20486;-59
2022/08/23 12:01:15;;;;;;;3.30;1.00;;;26.50;80.70;;;;;;4965278;28;20082;-56
2022/08/23 12:03:58;;;;;;;1.70;1.08;;;26.50;80.40;;;;;;4972789;28;20823;-59
2022/08/23 12:06:41;;;;;;;3.55;0.82;;;26.60;79.70;;;;;;4965539;28;20700;-58
2022/08/23 12:09:31;;;;;;;5.80;0.90;;;26.60;79.30;;;;;;4969665;28;20026;-57
2022/08/23 12:11:56;;;;;;;1.08;0.80;;;26.60;79.60;;;;;;4971104;28;20103;-58
2022/08/23 12:14:31;;;;;;;2.10;1.30;;;26.70;80.30;;;;;;4968973;28;20265;-57
2022/08/23 12:17:24;;;;;;;1.55;1.00;;;26.70;81.00;;;;;;4980661;28;20076;-59
2022/08/23 12:20:12;;;;;;;2.67;1.00;;;26.70;80.60;;;;;;4963843;28;20030;-58
2022/08/23 12:23:06;;;;;;;2.60;1.17;;;26.80;80.30;;;;;;4976306;28;20085;-53
2022/08/23 12:25:33;;;;;;;0.73;0.70;;;26.90;78.10;;;;;;4960556;28;20114;-59
2022/08/23 12:28:20;;;;;;;2.35;1.33;;;26.90;79.30;;;;;;4975111;28;20111;-60
2022/08/23 12:31:14;;;;;;;1.35;0.90;;;26.90;78.80;;;;;;4965960;28;20085;-59
2022/08/23 12:34:01;;;;;;;2.05;1.48;;;27.00;78.20;;;;;;4972691;28;20026;-59
2022/08/23 12:36:44;;;;;;;1.65;0.80;;;27.00;78.00;;;;;;4966813;28;20035;-56
2022/08/23 12:39:21;;;;;;;1.73;0.90;;;27.10;78.10;;;;;;4977474;28;20026;-57
2022/08/23 12:41:49;;;;;;;1.48;0.90;;;27.20;77.20;;;;;;4977606;28;20058;-59
2022/08/23 12:44:21;;;;;;;2.00;1.13;;;27.20;78.60;;;;;;4965650;28;20041;-59
2022/08/23 12:46:48;;;;;;;1.48;0.80;;;27.40;78.40;;;;;;4972064;28;20599;-58
2022/08/23 12:49:54;;;;;;;1.55;0.93;;;27.50;78.20;;;;;;4978382;28;20090;-59
2022/08/23 12:52:24;;;;;;;1.95;1.25;;;27.60;77.20;;;;;;4967964;28;20487;-58
2022/08/23 12:54:53;;;;;;;1.67;0.95;;;27.60;78.10;;;;;;4974047;28;20218;-59
2022/08/23 12:57:26;;;;;;;1.08;0.90;;;27.70;77.80;;;;;;4968379;28;20491;-57
2022/08/23 13:00:01;;;;;;;1.02;0.90;;;27.80;76.20;;;;;;4981188;28;20030;-55
2022/08/23 13:02:30;;;;;;;1.73;1.27;;;27.80;75.80;;;;;;4970985;28;20020;-61
2022/08/23 13:05:05;;;;;;;1.10;1.00;;;27.90;75.20;;;;;;4978483;28;20450;-59
2022/08/23 13:07:31;;;;;;;1.75;1.10;;;28.00;75.10;;;;;;4969211;28;20031;-59
2022/08/23 13:09:56;;;;;;;4.63;1.00;;;28.10;74.80;;;;;;4977366;28;20113;-59
2022/08/23 13:12:22;;;;;;;1.25;1.00;;;28.10;74.80;;;;;;4966286;28;20106;-58
2022/08/23 13:14:53;;;;;;;1.30;0.95;;;28.20;74.70;;;;;;4975641;28;20034;-59
2022/08/23 13:17:31;;;;;;;2.92;1.10;;;28.30;73.60;;;;;;4971049;28;20033;-60
2022/08/23 13:19:59;;;;;;;1.33;1.00;;;28.20;74.00;;;;;;4974224;28;20518;-61
2022/08/23 13:22:26;;;;;;;2.40;0.80;;;28.30;73.30;;;;;;4976099;28;20502;-60